Terminal Aerodrome Forecast
Issued by NWS

Home | Current Version | Previous Version | Text Only | Print | Product List | Glossary On
Versions: 1 2 3 4 5 6 7 8 9 10 11 12 13 14 15 16
000
FTUS43 KICT 051122
TAFHUT
TAF
KHUT 051122Z 0512/0612 15008KT P6SM SCT070 BKN100
     FM051500 17016G23KT P6SM SCT040 BKN120
     FM052200 17015G22KT P6SM VCTS SCT050CB BKN080
     FM060200 17013KT P6SM VCTS BKN035CB=

USA.gov is the U.S. government's official web portal to all federal, state and local government web resources and services.